Aviation Digital Data Service (ADDS)

Output produced by METARs form (1708 UTC 03 September 2015)
found at http://aviationweather.gov/adds/metars/
 
KDET 031134Z 0312/0412 24005KT P6SM SCT045 BKN120 
     TEMPO 0320/0324 1SM TSRA BKN035CB BKN050 
     FM040100 VRB03KT P6SM SCT045 BKN100 
     FM040700 VRB03KT 4SM BR SCT100